Date,TemperatureHighF,TemperatureAvgF,TemperatureLowF,DewpointHighF,DewpointAvgF,DewpointLowF,HumidityHigh,HumidityAvg,HumidityLow,PressureMaxIn,PressureMinIn,WindSpeedMaxMPH,WindSpeedAvgMPH,GustSpeedMaxMPH,PrecipitationSumIn
2013-1-24,43.3,37.1,31.8,24.4,23.0,20.8,69,57,41,30.00,29.95,4,0,4,0.00
2013-1-25,40.1,35.3,31.8,32.4,28.6,23.1,83,76,70,30.01,29.91,5,0,5,0.02
2013-1-26,36.1,34.2,32.9,32.8,30.7,29.6,90,87,83,29.91,29.65,2,0,2,1.04
2013-1-27,39.5,34.3,32.7,35.3,31.4,29.5,91,89,83,29.73,29.65,4,0,4,0.51
2013-1-28,34.3,30.5,23.3,31.9,27.1,18.6,91,87,79,29.65,29.49,8,0,8,0.10
2013-1-29,27.5,19.8,9.1,19.6,11.5,2.9,86,71,54,31.99,22.36,5,0,5,0.00
2013-1-30,27.6,15.3,2.8,16.3,7.5,-2.8,79,72,54,30.04,29.84,5,0,5,0.00
2013-1-31,36.1,22.7,9.6,24.0,15.2,4.4,83,73,57,30.15,30.02,7,0,7,0.10
2013-2-1,38.1,26.0,14.3,25.6,18.5,9.5,83,74,59,30.16,30.09,6,0,6,0.10
2013-2-2,39.9,28.0,16.3,27.1,19.7,11.4,83,72,56,30.27,30.16,4,0,4,0.06
2013-2-3,39.0,30.5,22.8,26.0,22.1,17.7,82,72,53,30.20,29.95,6,0,6,0.00
2013-2-4,35.7,26.7,16.8,26.9,20.3,11.7,83,77,68,30.06,29.94,6,1,6,0.00
2013-2-5,42.9,29.4,17.4,28.2,20.6,12.7,85,71,51,30.06,29.96,5,0,5,0.00
2013-2-6,43.1,31.0,20.8,27.8,21.8,15.8,83,70,52,29.97,29.90,7,1,7,0.00
2013-2-7,42.0,29.5,17.4,22.3,16.6,11.3,78,61,31,30.09,29.94,8,1,8,0.00
2013-2-8,42.9,33.0,22.2,23.7,19.9,13.2,73,59,39,30.03,29.72,14,1,14,0.00
2013-2-9,28.5,23.6,15.2,21.0,16.5,9.0,82,74,62,29.72,22.12,12,1,12,0.00
2013-2-10,27.5,20.4,15.2,19.5,14.7,9.6,83,78,69,29.87,22.17,7,0,7,0.00
2013-2-11,28.5,20.6,8.2,17.2,13.1,0.9,84,73,57,29.95,29.85,22,0,22,0.00
2013-2-12,27.6,15.0,1.5,12.1,4.4,-4.9,77,64,46,30.06,29.91,5,1,5,0.02
2013-2-13,32.5,19.5,5.1,18.5,9.6,-1.5,78,66,54,30.09,30.01,6,0,6,0.09
2013-2-14,35.9,22.8,11.1,22.8,13.1,4.9,79,67,53,30.13,30.03,5,1,5,0.02
2013-2-15,41.9,24.7,8.9,15.0,7.7,1.1,72,51,27,30.27,30.12,9,1,9,0.00
2013-2-16,41.3,26.8,11.6,19.2,10.7,1.5,66,52,34,30.29,30.11,22,1,22,0.00
2013-2-17,43.1,29.3,16.5,17.8,12.5,8.4,73,52,28,30.11,29.77,6,0,22,0.00
2013-2-18,35.9,27.7,17.4,16.1,8.0,3.5,60,44,28,30.06,29.79,10,1,10,0.00
2013-2-19,43.5,27.2,11.1,15.9,8.2,0.5,63,47,25,30.03,29.76,6,0,6,0.00
2013-2-20,32.7,26.5,0.0,24.5,16.9,-6.0,76,67,50,30.01,29.68,6,0,6,0.00
2013-2-21,34.3,23.3,13.8,23.8,15.8,7.6,78,73,63,29.94,22.38,8,0,8,0.08
2013-2-22,29.8,20.1,8.9,20.7,12.3,1.5,79,72,60,22.60,22.48,11,0,11,0.02
2013-2-23,28.9,18.7,3.9,19.2,9.2,-2.3,80,67,35,29.93,22.38,6,1,6,0.04
2013-2-24,24.4,22.3,19.0,19.4,16.8,13.5,81,79,77,29.94,22.38,6,1,6,0.00
2013-3-3,43.3,38.2,35.4,25.1,24.3,23.1,65,57,45,29.94,29.85,22,0,22,0.00
2013-3-4,47.8,37.7,28.0,31.8,25.0,14.0,81,62,39,30.02,29.82,6,1,6,0.00
2013-3-5,46.5,32.8,17.9,18.2,13.0,8.4,68,46,24,30.16,30.02,7,1,7,0.00
2013-3-6,52.7,40.8,25.5,24.6,19.1,9.7,63,43,30,30.10,29.96,9,1,9,0.00
2013-3-7,53.7,39.1,25.1,24.9,17.8,14.1,65,45,21,30.02,29.93,7,1,7,0.00
2013-3-8,40.2,33.0,29.3,31.0,24.1,16.9,86,70,42,29.94,29.72,7,0,7,0.04
2013-3-9,32.1,26.2,17.2,27.0,20.8,11.4,87,80,73,29.87,29.68,7,0,7,0.02
2013-3-10,39.0,26.4,12.7,26.1,17.8,7.4,81,71,54,30.04,29.86,6,0,6,0.16
2013-3-11,45.3,31.4,17.4,27.6,21.1,12.2,83,67,48,30.05,29.97,8,1,8,0.00
2013-3-12,51.6,37.0,23.3,29.7,23.7,16.4,77,60,41,30.17,30.02,8,1,8,0.00
2013-3-13,55.9,40.4,26.2,30.3,24.1,18.6,75,55,31,30.26,30.15,6,1,6,0.00
2013-3-14,62.2,45.4,29.8,26.9,22.7,17.7,63,43,24,30.29,30.20,8,1,8,0.00
2013-3-15,65.1,46.1,31.2,28.4,22.4,18.7,62,42,21,30.20,30.00,10,1,10,0.00
2013-3-16,57.3,43.5,33.6,31.3,24.1,19.7,63,47,34,30.00,29.85,7,0,7,0.00
2013-3-17,50.7,39.5,29.3,31.6,21.4,11.5,71,51,30,29.89,29.74,10,1,10,0.00
2013-3-18,50.7,39.7,27.5,15.6,11.3,7.2,49,33,18,29.98,29.85,10,1,10,0.00
2013-3-19,51.8,38.8,28.7,19.4,14.7,10.4,56,39,23,30.09,29.94,10,1,10,0.00
2013-3-20,49.2,37.3,24.6,26.9,19.0,11.6,61,49,30,30.11,29.88,10,1,10,0.00
2013-3-21,54.3,42.2,30.7,31.3,21.3,6.7,74,47,23,29.88,29.74,13,1,13,0.00
2013-3-22,51.4,37.3,24.0,18.0,7.7,1.1,52,32,14,29.80,29.65,20,2,20,0.00
2013-3-23,35.2,25.9,15.6,6.6,2.4,-4.3,48,36,25,29.94,29.67,12,1,12,0.00
2013-3-24,39.3,24.6,8.7,6.6,1.2,-3.9,59,38,22,29.96,29.83,12,1,12,0.00
2013-3-25,44.2,28.7,11.8,7.9,2.8,-2.3,56,35,17,30.05,29.94,11,1,11,0.00
2013-3-26,51.8,37.6,22.8,18.8,13.4,6.6,58,38,24,30.04,29.94,9,1,9,0.00
2013-3-27,58.4,45.2,30.9,25.6,17.4,11.5,60,35,18,30.04,29.95,13,1,13,0.00
2013-3-28,59.9,44.5,30.7,22.2,16.3,13.1,54,34,20,30.10,30.03,13,1,13,0.00
2013-3-29,58.1,45.3,32.5,30.7,22.4,14.7,58,41,30,30.14,30.09,9,1,9,0.00
2013-3-30,64.2,47.0,30.9,29.6,22.5,19.0,63,41,20,30.14,30.04,12,1,12,0.00
2013-3-31,62.6,47.6,32.1,29.1,22.8,19.6,62,40,21,30.10,30.02,10,1,10,0.00
2013-4-1,60.9,48.3,36.6,31.7,22.4,12.9,63,39,18,30.04,29.92,10,1,10,0.00
2013-4-2,55.2,40.7,29.1,23.2,17.7,12.0,60,41,25,29.96,29.90,11,1,11,0.00
2013-4-3,58.2,42.5,26.7,27.9,20.2,13.2,69,44,18,30.14,29.95,10,1,10,0.00
2013-4-4,64.0,46.6,29.3,25.1,18.4,12.7,53,35,20,30.21,30.12,10,1,10,0.00
2013-4-5,61.5,47.8,35.9,26.8,20.8,15.0,53,36,21,30.14,29.96,10,1,10,0.00
2013-4-6,62.4,50.4,36.3,30.2,22.0,15.3,58,35,17,30.02,29.94,17,2,17,0.00
2013-4-7,61.8,48.3,33.8,26.6,20.2,14.1,59,35,20,29.97,29.86,13,1,13,0.00
2013-4-8,52.3,38.5,33.6,28.9,21.5,14.6,79,51,37,31.51,24.98,13,1,13,0.00
2013-4-9,35.9,32.9,31.1,31.3,29.0,26.9,89,85,78,31.39,22.02,5,0,5,0.06
2013-4-10,32.5,28.6,23.5,28.0,23.6,19.5,88,82,73,30.06,22.17,6,0,6,0.02
2013-4-11,48.7,33.4,18.1,36.3,24.1,12.9,83,69,53,30.07,29.99,5,0,5,0.16
2013-4-12,55.2,41.5,25.7,32.2,25.0,18.9,76,55,32,30.10,30.03,9,1,9,0.00
2013-4-13,58.8,46.0,28.9,29.5,22.6,18.7,68,43,24,30.10,29.85,14,2,14,0.00
2013-4-14,54.5,48.3,39.5,31.4,25.3,21.9,67,42,29,29.92,29.81,17,2,17,0.00
2013-4-15,58.8,48.6,38.3,31.1,25.7,19.1,64,43,22,29.93,29.84,18,1,18,0.00
2013-4-16,61.8,51.6,40.2,29.2,21.6,13.0,51,33,17,29.97,29.85,14,2,14,0.00
2013-4-17,46.2,38.6,26.7,24.2,16.4,3.7,55,41,22,30.00,29.88,18,2,18,0.00
2013-4-18,40.2,29.2,16.8,10.3,2.6,-1.5,54,34,18,30.25,29.99,14,1,14,0.00
2013-4-19,51.4,34.7,16.8,16.3,7.6,-2.6,44,33,23,30.28,30.12,12,1,12,0.00
2013-4-20,53.0,42.3,30.7,29.2,22.0,15.2,59,45,36,30.18,30.07,12,1,12,0.00
2013-4-21,59.7,43.6,26.4,25.0,18.7,13.9,63,40,19,30.25,30.15,16,2,16,0.00
2013-4-22,66.0,50.6,36.3,27.5,20.7,16.4,52,33,19,30.18,29.99,14,1,14,0.00
2013-4-23,54.1,42.9,28.9,24.1,11.3,-3.7,50,30,14,30.20,29.97,19,2,19,0.00
2013-4-24,58.8,41.4,25.5,16.3,7.3,-2.3,37,26,16,30.24,30.15,12,1,12,0.00
2013-4-25,64.2,48.3,35.4,31.4,20.4,11.2,61,35,20,30.24,30.11,13,1,13,0.00
2013-4-26,58.1,46.7,33.0,34.1,27.6,23.0,70,49,30,30.37,30.18,10,1,10,0.02
2013-4-27,65.8,49.9,31.8,27.3,20.3,14.9,56,35,17,30.36,30.27,12,1,12,0.00
2013-4-28,70.5,53.4,34.5,25.8,19.8,14.7,49,29,17,30.29,30.14,11,1,11,0.00
2013-4-29,74.3,56.4,37.9,31.4,23.6,17.1,52,31,17,30.18,30.05,14,1,14,0.00
2013-4-30,73.0,57.8,41.1,30.2,20.7,14.6,47,26,13,30.09,30.03,14,1,14,0.00
2013-5-1,62.9,50.0,39.0,27.4,12.8,-5.1,41,24,12,30.35,30.06,14,2,14,0.00
2013-5-2,55.2,43.7,32.1,11.0,5.5,0.7,32,21,14,30.48,30.34,10,2,10,0.00
2013-5-3,61.3,45.0,27.6,19.2,11.3,4.2,40,26,17,30.41,30.16,11,1,11,0.00
2013-5-4,67.1,56.2,37.0,19.8,12.9,-2.6,30,19,12,30.16,29.83,13,1,13,0.00
2013-5-5,64.0,53.8,43.7,27.8,20.9,13.0,40,28,21,29.99,29.91,11,1,11,0.00
2013-5-6,50.9,44.8,40.1,38.5,35.4,27.4,83,71,40,29.96,29.91,14,0,14,0.24
2013-5-7,58.1,47.4,36.1,41.7,33.3,28.8,88,62,36,29.98,29.86,12,1,12,0.08
2013-5-8,46.9,42.0,35.4,35.9,32.2,27.2,84,69,55,29.95,29.86,7,1,7,0.19
2013-5-9,51.6,41.4,33.2,37.6,32.3,25.7,80,70,55,30.02,29.90,7,1,7,0.02
2013-5-10,60.0,45.1,32.3,40.1,32.9,27.2,82,64,37,30.15,29.99,9,1,9,0.02
2013-5-11,64.0,48.5,33.6,36.8,31.4,26.7,78,55,30,30.19,30.15,10,1,10,0.02
2013-5-12,71.4,54.3,36.5,39.3,33.5,28.1,75,49,27,30.19,30.09,9,1,9,0.00
2013-5-13,75.9,59.4,41.5,39.2,33.8,28.1,64,41,22,30.19,30.09,9,1,9,0.00
2013-5-14,72.3,58.8,44.9,41.5,36.0,30.7,63,44,30,30.11,29.99,8,1,8,0.00
2013-5-15,73.2,59.5,46.2,44.9,37.2,23.8,68,46,23,30.01,29.90,9,1,9,0.04
2013-5-16,74.3,58.3,40.6,34.8,26.4,21.5,54,32,18,29.98,29.89,22,1,22,0.00
2013-5-17,73.0,57.4,39.7,31.3,20.5,11.9,51,27,11,29.98,29.91,10,1,10,0.00
2013-5-18,67.1,54.4,42.6,32.8,25.4,17.6,51,33,21,29.96,29.88,22,1,22,0.00
2013-5-19,59.5,48.3,39.7,31.6,25.8,22.3,55,42,32,29.89,29.84,22,0,22,0.00
2013-5-20,60.6,47.9,35.7,34.3,29.9,23.3,67,50,31,29.95,29.84,9,1,9,0.02
2013-5-21,68.3,52.5,34.7,35.8,30.8,25.5,71,47,26,29.98,29.88,10,1,10,0.00
2013-5-22,72.5,58.4,39.0,36.5,27.5,21.9,61,34,17,29.91,29.82,17,1,17,0.00
2013-5-23,78.0,60.9,42.8,34.6,24.0,16.8,51,27,12,29.95,29.85,16,1,16,0.00
2013-5-24,75.0,59.7,42.9,31.4,22.4,14.8,47,25,15,30.02,29.91,11,1,11,0.00
2013-5-25,76.1,59.7,39.7,30.5,21.4,15.2,48,25,13,30.02,29.92,10,1,10,0.00
2013-5-26,73.2,58.0,41.9,27.9,19.9,13.9,45,25,13,29.99,29.91,9,1,9,0.00
2013-5-27,71.4,56.3,39.9,26.3,19.1,13.2,44,25,16,29.92,29.82,10,1,10,0.00
2013-5-28,69.4,54.9,38.3,28.8,22.0,14.7,48,29,19,29.85,29.68,8,1,8,0.00
2013-5-29,64.0,53.8,42.8,35.9,27.7,20.0,66,39,24,29.77,29.67,16,1,16,0.00
2013-5-30,68.7,56.4,45.1,32.7,26.0,19.6,49,33,20,29.83,29.74,12,1,12,0.00
2013-5-31,74.1,57.1,39.7,30.3,19.6,13.4,50,26,12,29.99,29.82,14,1,14,0.00
2013-6-1,74.1,56.6,34.3,24.1,17.4,12.1,44,24,12,30.06,29.98,10,1,10,0.00
2013-6-2,78.0,61.2,41.1,33.6,25.4,14.9,45,27,17,30.06,29.92,10,1,10,0.00
2013-6-3,78.4,62.3,46.0,40.5,31.4,24.7,56,33,20,30.01,29.93,9,1,9,0.00
2013-6-4,80.2,64.1,46.7,40.9,29.9,22.1,52,30,17,30.02,29.94,10,1,10,0.00
2013-6-5,79.5,64.3,48.5,38.8,27.3,19.2,48,27,15,30.02,29.95,7,1,8,0.00
2013-6-6,82.0,62.0,44.4,37.8,29.1,20.6,50,30,16,30.03,29.96,10,1,10,0.00
2013-6-7,75.9,61.6,46.0,47.8,34.4,26.4,56,38,11,30.05,29.91,10,1,10,0.04
2013-6-8,86.5,66.6,45.6,42.8,34.0,28.8,60,33,16,30.01,29.90,10,1,10,0.00
2013-6-9,86.9,69.7,48.9,41.8,32.4,26.1,51,28,14,30.06,30.00,11,1,11,0.00
2013-6-10,89.7,70.9,51.4,41.5,31.0,24.2,45,26,13,30.11,30.02,22,1,22,0.00
2013-6-11,83.8,68.2,50.7,37.0,25.8,21.5,46,23,11,30.12,30.05,12,1,12,0.00
2013-6-12,84.3,67.9,50.3,38.9,26.4,20.3,45,23,11,30.20,30.09,9,1,9,0.00
2013-6-13,85.6,69.2,52.3,40.7,31.9,22.8,45,27,16,30.16,30.08,11,1,11,0.00
2013-6-14,84.0,69.6,53.2,44.5,33.6,22.1,55,29,14,30.15,30.01,10,1,10,0.00
2013-6-15,81.5,63.5,48.9,41.1,31.3,20.4,45,31,17,30.17,30.02,11,1,11,0.00
2013-6-16,80.7,64.9,47.4,45.1,36.1,31.7,61,38,19,30.14,30.06,12,1,12,0.00
2013-6-17,82.0,67.4,51.9,42.8,33.8,25.4,53,31,16,30.10,30.00,12,1,12,0.00
2013-6-18,81.6,70.9,48.7,47.4,36.3,15.5,53,30,11,30.07,29.93,12,2,12,0.00
2013-6-19,83.1,65.3,46.0,31.6,19.6,10.6,42,20,10,29.96,29.87,14,1,14,0.00
2013-6-20,81.6,64.8,45.1,31.2,19.0,10.5,38,19,11,30.01,29.92,13,1,13,0.00
2013-6-21,80.7,64.7,46.5,32.3,23.6,14.7,39,22,14,30.03,29.94,10,1,10,0.00
2013-6-22,80.4,64.4,47.6,31.7,22.8,17.6,41,22,12,30.00,29.90,11,1,11,0.00
2013-6-23,81.1,64.9,47.4,33.2,21.5,15.5,39,21,10,29.97,29.89,12,1,12,0.00
2013-6-24,79.5,64.2,48.0,32.7,21.0,15.0,40,21,12,29.98,29.90,9,1,9,0.00
2013-6-25,80.7,65.1,46.2,36.0,27.7,16.8,39,25,18,30.06,29.96,11,1,11,0.00
2013-6-26,88.3,70.8,49.6,42.0,34.6,28.6,49,29,16,30.12,30.04,9,1,9,0.00
2013-6-27,92.4,73.8,54.8,44.8,35.7,27.3,44,28,11,30.22,30.11,11,1,11,0.00
2013-6-28,91.4,72.5,57.9,46.8,39.0,31.8,48,31,18,30.25,30.05,7,0,7,0.00
2013-6-29,83.4,67.6,54.5,51.2,43.4,37.0,57,43,27,30.15,29.99,8,0,8,0.00
2013-6-30,83.6,67.7,52.8,56.1,45.2,38.8,63,46,29,30.17,29.90,13,1,13,0.08
2013-7-1,81.6,67.4,51.0,50.2,44.8,39.5,68,46,29,30.19,30.08,10,1,10,0.00
2013-7-2,80.9,66.6,50.9,51.4,45.3,38.9,70,48,32,30.22,29.92,9,1,9,0.00
2013-7-3,81.8,66.1,51.6,51.5,44.9,40.0,70,49,26,30.16,29.93,9,1,9,0.00
2013-7-4,82.2,70.0,57.7,47.4,43.3,39.7,57,40,27,30.07,30.00,7,0,7,0.00
2013-7-5,84.3,65.3,57.7,57.9,49.9,40.6,78,60,29,30.08,29.99,5,0,5,0.19
2013-7-6,82.2,66.7,55.4,55.1,50.4,44.9,82,59,30,30.12,29.93,9,1,9,0.02
2013-7-7,85.1,70.8,57.2,53.6,48.6,43.3,71,49,28,30.14,30.05,11,1,11,0.00
2013-7-8,86.9,73.3,57.9,52.4,45.8,40.2,62,40,22,30.21,29.97,12,1,12,0.00
2013-7-9,88.5,73.3,56.4,52.0,45.4,40.8,62,39,22,30.24,30.02,9,1,9,0.00
2013-7-10,89.7,74.4,59.7,54.5,47.6,40.8,70,42,23,30.15,29.96,16,1,16,0.04
2013-7-11,84.5,68.2,53.9,56.0,50.6,45.4,74,56,31,30.19,29.93,12,1,12,0.00
2013-7-12,83.3,67.0,56.8,55.5,51.7,47.6,74,60,34,30.15,29.97,8,1,8,0.04
2013-7-13,83.8,68.8,53.4,55.4,50.3,46.0,77,55,29,30.17,29.97,10,1,10,0.00
2013-7-14,84.0,67.6,59.1,58.4,52.0,47.4,79,59,34,30.16,29.95,14,0,14,0.53
2013-7-15,75.7,63.5,57.7,57.0,54.2,51.2,88,73,49,30.13,29.96,10,0,10,0.28
2013-7-16,71.4,61.2,55.4,55.8,52.7,49.6,90,75,55,30.20,30.01,8,0,8,0.02
2013-7-17,75.9,65.5,56.8,55.3,52.1,48.4,82,64,42,30.26,30.06,6,0,6,0.00
2013-7-18,80.2,67.3,53.2,54.4,49.4,44.2,75,54,39,30.26,30.05,7,1,7,0.00
2013-7-19,81.8,67.5,53.4,55.2,50.4,46.3,80,56,37,30.17,29.96,6,1,6,0.02
2013-7-20,84.0,67.8,55.4,57.6,51.6,47.3,76,58,33,30.15,29.92,7,0,7,0.00
2013-7-21,84.9,64.1,52.5,56.9,49.8,44.4,78,62,31,30.12,29.98,5,0,5,0.31
2013-7-22,83.8,64.3,52.5,54.0,48.4,44.4,76,59,31,30.09,29.96,7,0,7,0.00
2013-7-23,82.5,67.8,56.8,51.0,46.3,42.8,65,48,27,30.18,29.99,5,0,5,0.00
2013-7-24,88.5,69.0,58.1,54.3,47.4,42.2,83,50,22,30.20,29.98,14,1,14,0.14
2013-7-25,82.0,66.7,51.8,59.0,52.0,47.0,87,63,34,30.16,29.97,9,1,9,0.00
2013-7-26,81.3,65.1,55.4,58.4,51.5,46.5,77,62,40,30.25,30.06,12,1,12,0.09
2013-7-27,80.2,65.3,51.9,55.6,50.4,46.3,84,61,36,30.17,29.93,11,1,11,0.00
2013-7-28,70.3,61.6,57.0,58.7,53.5,49.0,87,76,52,30.06,29.90,9,0,9,0.16
2013-7-29,78.6,64.1,52.7,58.6,49.7,44.4,86,63,32,30.16,29.94,9,1,9,0.04
2013-7-30,82.0,66.5,50.7,52.1,44.9,40.1,74,49,27,30.25,30.07,8,0,8,0.00
2013-7-31,84.9,69.1,51.9,48.6,41.4,37.5,62,40,22,30.29,30.05,8,1,8,0.00
2013-8-1,70.8,63.4,58.1,54.6,48.0,37.6,81,58,40,30.23,30.04,7,0,7,0.04
2013-8-2,79.1,65.2,52.3,58.7,52.1,47.8,88,65,38,30.12,29.99,10,1,10,0.26
2013-8-3,80.0,66.2,54.3,56.0,50.5,46.6,79,59,37,30.17,30.02,8,1,8,0.03
2013-8-4,86.3,66.9,53.2,55.5,48.6,42.6,77,55,30,30.20,30.06,7,1,7,0.08
2013-8-5,81.1,67.2,52.5,56.3,50.4,44.6,85,58,32,30.16,29.98,12,1,12,0.02
2013-8-6,76.8,64.9,56.4,54.3,49.3,45.2,79,58,38,30.14,29.99,9,1,9,0.06
2013-8-7,73.4,57.9,52.3,55.1,50.4,47.4,86,77,47,30.12,30.07,7,0,7,0.36
2013-8-8,62.9,54.9,49.8,53.2,48.7,43.5,91,80,63,30.12,30.03,6,0,6,0.05
2013-8-9,76.6,60.6,45.3,51.4,44.4,39.8,84,59,32,30.18,30.09,9,1,9,0.00
2013-8-10,77.3,56.8,48.3,52.2,45.3,40.4,84,67,34,30.30,30.15,12,1,12,0.42
2013-8-11,73.9,59.6,44.4,52.3,45.6,40.4,88,63,37,30.21,30.12,10,1,10,0.00
2013-8-12,75.7,61.7,50.9,50.0,45.8,41.1,73,58,34,30.18,30.12,11,1,11,0.05
2013-8-13,78.9,63.0,48.2,52.1,43.4,37.6,79,53,25,30.21,30.14,7,0,7,0.00
2013-8-14,79.5,65.2,49.2,47.4,39.5,35.5,64,42,24,30.19,30.13,8,1,8,0.00
2013-8-15,82.4,76.4,60.9,46.0,39.4,35.4,41,27,20,30.10,30.06,8,1,8,0.00
2013-8-16,85.2,68.7,53.2,44.6,36.6,32.8,53,33,18,30.13,30.07,6,1,6,0.00
2013-8-17,84.5,67.5,53.4,45.8,40.4,33.2,54,38,24,30.12,30.03,5,0,5,0.00
2013-8-18,81.3,66.6,51.4,50.8,44.8,39.2,66,47,30,30.12,30.05,10,0,10,0.00
2013-8-19,85.2,65.8,53.4,56.6,47.7,41.0,71,54,29,30.10,30.03,7,0,7,0.02
2013-8-20,84.0,65.3,54.6,53.3,48.1,44.0,72,56,27,30.09,30.04,7,1,7,0.08
2013-8-21,82.9,65.7,51.4,53.9,47.5,42.7,74,55,30,30.16,30.04,13,1,13,0.02
2013-8-22,83.8,66.8,54.5,53.8,47.4,42.4,72,52,28,30.13,30.04,9,1,9,0.00
2013-8-23,81.6,68.7,57.5,51.5,44.4,31.3,76,46,21,30.10,29.99,8,1,8,0.04
2013-8-24,69.8,61.4,56.4,54.5,49.9,42.5,85,67,46,30.11,30.02,8,0,8,0.32
2013-8-25,65.1,58.4,55.0,57.7,54.3,51.0,90,86,70,30.16,30.09,5,0,5,0.51
2013-8-26,76.2,65.0,54.6,59.7,53.9,49.6,91,70,44,30.18,30.09,8,1,8,0.08
2013-8-27,81.3,67.8,54.8,57.5,50.1,45.2,79,56,30,30.11,30.03,8,1,8,0.00
2013-8-28,82.2,68.3,54.3,56.1,48.3,43.8,73,51,27,30.08,30.00,9,1,9,0.00
2013-8-29,82.0,66.5,53.9,55.3,49.5,44.3,73,56,34,30.12,30.06,8,0,8,0.00
2013-8-30,85.2,69.7,56.1,54.6,48.2,44.5,71,49,27,30.10,30.00,7,1,7,0.00
2013-8-31,83.8,69.5,55.5,54.6,49.7,45.9,74,52,33,30.09,29.96,22,1,22,0.02
2013-9-1,63.6,59.3,55.0,47.2,45.5,43.4,65,60,54,30.03,29.99,1,0,1,0.00
2013-9-3,74.8,68.8,62.9,51.8,49.8,47.4,58,51,44,30.09,30.04,1,0,1,0.00
2013-9-4,85.8,71.2,56.8,54.2,48.5,42.6,68,48,25,30.17,30.06,7,1,7,0.03
2013-9-5,84.9,70.7,54.3,52.0,45.1,36.7,68,43,23,30.20,30.13,9,1,9,0.00
2013-9-6,80.6,60.9,52.8,44.6,37.1,33.2,52,42,26,30.18,30.14,7,0,7,0.00
2013-9-7,84.0,69.9,53.9,46.5,41.3,35.9,55,37,22,30.11,30.01,10,1,10,0.00
2013-9-8,81.3,67.6,55.5,51.5,45.9,42.0,64,47,27,30.08,29.93,9,1,9,0.00
2013-9-9,75.5,59.4,53.7,53.8,48.8,43.4,85,69,39,29.98,29.88,8,0,8,0.06
2013-9-10,59.9,56.4,53.9,53.3,50.6,48.2,90,82,69,30.00,29.93,5,0,5,0.96
2013-9-11,70.3,58.6,52.1,56.4,51.5,45.5,91,79,52,30.04,29.97,6,0,6,0.42
2013-9-12,69.9,57.5,49.8,55.2,49.7,43.8,89,76,49,30.06,29.96,12,0,12,0.78
2013-9-13,66.5,57.8,51.4,54.9,50.7,48.0,90,78,63,29.99,29.90,8,1,8,0.02
2013-9-14,60.9,55.1,49.6,51.2,49.0,45.8,87,80,64,29.97,29.86,6,0,6,0.39
2013-9-15,68.0,56.8,47.8,53.8,48.1,44.5,91,74,51,30.03,29.91,6,0,6,0.12
2013-9-16,70.8,59.3,51.6,54.1,49.1,45.5,88,71,49,30.10,30.00,8,0,8,0.08
2013-9-17,70.1,59.2,51.6,55.0,50.9,46.8,89,75,51,30.06,29.90,4,0,4,0.29
2013-9-18,68.1,56.5,48.3,54.5,50.4,42.2,90,81,57,29.95,29.80,9,1,9,0.63
2013-9-19,68.7,55.6,45.1,55.0,45.4,38.7,92,71,38,29.95,29.85,6,0,6,0.00
2013-9-20,72.3,56.9,42.4,46.3,39.5,35.3,79,55,29,30.00,29.93,6,0,6,0.00
2013-9-21,71.9,58.7,47.1,51.6,43.3,36.4,81,58,35,29.99,29.85,8,1,8,0.00
2013-9-22,57.9,49.8,38.4,52.1,45.2,35.2,90,84,68,29.87,29.56,8,0,8,1.49
2013-9-23,62.4,48.2,34.8,41.4,35.9,32.1,92,66,38,29.99,29.67,12,1,12,0.02
2013-9-24,67.1,51.4,36.6,42.2,34.8,29.6,78,56,28,30.06,29.90,6,0,6,0.00
2013-9-25,70.7,55.1,40.1,41.8,34.8,30.3,74,49,29,29.91,29.70,11,1,11,0.00
2013-9-26,67.6,55.5,41.1,36.3,29.5,24.3,65,40,21,29.80,29.71,12,1,12,0.00
2013-9-27,57.7,45.4,34.5,42.2,33.6,23.7,83,65,39,29.90,29.70,8,0,8,0.22
2013-9-28,56.1,42.0,27.6,30.9,25.5,19.8,74,54,30,30.05,29.90,7,1,7,0.00
2013-9-29,64.2,47.6,32.1,35.1,28.1,23.5,75,50,27,30.05,29.94,8,1,8,0.00
2013-9-30,68.5,52.5,38.1,36.5,30.2,23.0,63,44,27,29.95,29.88,11,1,11,0.00
2013-10-1,69.6,53.5,39.0,39.4,31.0,25.4,69,45,24,29.95,29.88,8,1,8,0.00
2013-10-2,67.1,51.6,36.6,35.0,27.6,23.2,60,42,25,29.93,29.82,7,0,7,0.00
2013-10-3,63.1,51.6,37.7,36.9,30.0,23.8,64,45,30,29.83,29.65,9,1,9,0.00
2013-10-4,53.4,42.7,30.2,29.6,19.9,11.7,70,42,22,29.89,29.65,12,1,12,0.00
2013-10-5,50.7,37.5,24.9,24.2,18.5,12.6,62,47,33,30.02,29.88,9,1,9,0.00
2013-10-6,60.4,44.0,28.5,29.2,22.9,17.1,65,46,26,30.06,30.00,7,1,7,0.00
2013-10-7,66.0,46.9,34.1,32.9,25.8,21.5,64,46,22,30.05,29.93,5,1,5,0.00
2013-10-8,65.4,51.3,37.5,33.3,27.4,22.8,59,41,26,29.94,29.78,10,1,10,0.00
2013-10-9,61.5,48.9,38.4,36.5,29.7,25.7,67,49,29,29.84,29.75,10,1,10,0.02
2013-10-10,51.6,41.3,32.7,36.1,31.6,28.6,86,70,48,29.77,29.62,17,1,17,0.17
2013-10-11,40.2,35.6,33.4,35.4,31.4,29.4,87,85,80,29.91,29.75,4,0,4,0.52
2013-10-12,52.3,40.2,30.3,36.8,30.4,26.7,88,70,44,29.98,29.88,7,0,7,0.07
2013-10-13,58.6,46.2,37.4,43.8,36.8,29.8,81,71,46,29.95,29.80,9,0,9,0.02
2013-10-14,50.5,40.6,31.6,35.2,28.8,22.4,81,64,45,29.90,29.81,11,0,11,0.00
2013-10-15,50.1,39.2,27.6,29.5,24.3,20.1,75,57,36,29.89,29.79,8,0,8,0.00
2013-10-16,47.1,39.0,30.7,31.9,27.1,20.4,81,64,43,29.90,29.83,8,1,8,0.02
2013-10-17,51.9,37.3,26.0,27.4,21.8,16.9,78,56,32,29.89,29.75,11,1,11,0.00
2013-10-18,53.0,38.0,26.2,25.3,18.7,11.9,71,48,26,29.90,29.73,9,1,9,0.00
2013-10-19,54.1,38.8,25.8,25.5,18.2,11.3,59,44,30,29.94,29.83,6,1,6,0.00
2013-10-20,55.9,37.6,27.6,29.0,22.0,17.9,69,55,29,29.84,29.71,9,1,9,0.00
2013-10-21,42.9,38.8,35.2,20.8,19.7,18.5,51,46,41,29.93,29.92,1,0,1,0.00
2013-10-22,59.7,43.4,29.4,27.8,21.1,15.6,60,43,24,30.01,29.92,9,1,9,0.00
2013-10-23,62.4,45.8,32.1,30.1,22.9,19.0,66,43,24,30.02,29.95,7,1,7,0.00
2013-10-24,63.5,48.5,34.5,29.9,24.8,19.2,58,41,24,30.04,29.95,7,1,7,0.00
2013-10-25,55.5,45.7,39.0,40.8,34.6,27.3,81,66,45,30.04,29.95,6,0,6,0.20
2013-10-26,58.8,44.9,33.9,40.9,34.1,29.5,88,68,40,30.09,29.99,7,0,7,0.00
2013-10-27,55.5,43.6,33.0,38.3,31.1,26.9,83,63,43,30.03,29.75,12,0,12,0.00
2013-10-28,55.9,47.1,38.3,35.1,27.9,21.0,74,50,29,29.79,29.73,18,1,18,0.00
2013-10-29,47.1,42.3,33.4,32.7,28.0,22.4,84,58,43,29.81,29.69,14,1,14,0.08
2013-10-30,38.3,32.0,28.0,31.8,27.2,23.2,85,82,68,29.76,29.68,8,0,8,0.06
2013-10-31,41.7,31.4,21.5,29.0,23.7,17.1,86,74,58,29.87,29.72,9,1,9,0.00
2013-11-1,49.2,35.4,24.0,31.9,25.3,19.4,83,68,48,30.02,29.85,7,1,7,0.00
2013-11-2,56.6,40.1,27.1,30.0,24.3,19.9,75,56,31,30.04,29.83,6,0,6,0.00
2013-11-3,50.5,38.4,30.7,31.1,24.0,17.7,71,57,38,29.85,29.65,8,0,8,0.00
2013-11-4,48.0,37.8,27.1,30.8,23.1,16.5,81,57,35,29.76,29.66,22,1,22,0.02
2013-11-5,39.9,32.8,22.1,30.3,22.7,10.6,87,68,42,29.93,29.64,10,1,10,0.03
2013-11-6,42.9,29.1,17.2,20.5,14.1,8.7,73,55,36,30.12,29.92,6,1,6,0.00
2013-11-7,52.3,36.3,23.1,24.7,18.8,13.9,72,51,31,30.15,29.98,8,1,8,0.00
2013-11-8,55.9,39.4,27.3,25.5,20.2,16.3,68,48,29,29.98,29.86,7,1,7,0.00
2013-11-9,56.8,40.7,28.4,26.4,20.0,16.1,63,45,27,30.00,29.90,7,1,7,0.00
2013-11-10,58.4,41.8,29.3,26.5,20.0,16.3,62,44,25,30.07,29.99,7,1,7,0.00
2013-11-11,58.6,42.2,29.4,26.0,19.7,15.6,60,43,24,30.12,30.01,6,1,6,0.00
2013-11-12,59.1,42.9,31.2,25.2,19.4,15.8,57,41,22,30.23,30.11,6,1,6,0.00
2013-11-13,53.4,39.7,28.5,29.1,22.5,16.2,66,51,35,30.17,29.90,8,0,8,0.00
2013-11-14,52.3,39.1,29.3,30.0,23.7,18.2,71,55,36,29.91,29.73,7,0,7,0.00
2013-11-15,45.6,36.4,28.0,31.7,25.5,18.3,84,65,46,29.74,29.51,13,1,13,0.14
2013-11-16,39.0,35.5,32.7,33.8,30.9,28.7,88,83,76,29.60,29.50,8,0,8,0.12
2013-11-17,46.0,36.9,29.8,33.0,28.7,23.7,87,73,54,29.92,29.58,8,1,8,0.00
2013-11-18,49.1,36.0,25.8,31.1,25.8,21.1,85,68,48,29.99,29.89,7,0,7,0.00
2013-11-19,48.7,37.5,27.6,32.2,27.1,21.9,82,67,52,29.90,29.72,5,0,5,0.00
2013-11-20,46.5,36.3,28.7,32.9,28.4,22.6,86,74,57,29.74,29.67,5,0,5,0.10
2013-11-21,39.9,35.6,33.6,36.0,32.2,29.9,90,88,82,29.87,29.70,4,0,4,0.37
2013-11-22,36.5,34.3,33.0,34.0,31.7,30.4,91,90,89,29.96,29.83,3,0,3,0.49
2013-11-23,37.0,34.2,31.8,34.6,31.7,29.3,92,91,89,29.97,29.89,2,0,2,0.51
2013-11-24,32.0,27.5,23.1,29.7,24.4,19.7,91,88,85,29.90,29.74,0,0,0,0.02
2013-11-25,31.6,25.6,22.8,27.6,22.5,19.2,90,88,84,29.98,29.71,0,0,0,0.00
2013-11-26,29.4,24.7,19.2,25.8,21.5,15.8,90,87,85,30.05,29.98,0,0,0,0.00
2013-11-27,37.2,28.0,19.0,30.9,23.4,15.1,86,83,76,30.01,29.85,4,0,4,0.22
2013-11-28,44.4,31.9,23.3,33.9,24.8,19.4,88,76,43,29.93,29.83,5,0,5,0.35
2013-11-29,42.6,31.6,22.8,28.8,23.5,18.0,84,73,55,30.01,29.91,5,0,5,0.04
2013-11-30,43.7,32.5,24.0,31.1,25.0,19.4,85,74,59,30.00,29.90,6,1,6,0.00
2013-12-1,28.5,25.9,20.8,24.0,22.0,16.1,89,85,81,29.99,29.89,4,0,4,0.00
2013-12-2,28.0,26.5,24.0,25.2,23.4,20.7,90,88,86,29.90,29.62,4,0,4,0.00
2013-12-3,40.4,30.8,22.8,32.1,24.1,19.4,90,77,55,29.64,22.05,8,0,8,0.00
2013-12-4,35.7,26.9,9.5,27.9,19.6,3.3,85,74,66,31.15,22.05,12,1,12,0.00
2013-12-5,23.7,14.1,6.0,13.1,6.5,0.3,80,72,58,28.31,28.22,6,0,6,0.00
2013-12-6,23.7,14.3,5.7,11.5,5.5,-0.7,80,68,54,28.45,28.29,9,1,9,0.00
2013-12-7,24.9,18.3,7.8,18.2,11.2,0.4,85,74,55,30.13,28.32,9,0,9,0.00
2013-12-8,23.5,14.1,-1.3,18.2,3.7,-9.5,85,63,46,31.44,29.92,10,2,10,0.00
2013-12-9,17.7,5.1,-5.6,2.7,-5.3,-13.0,74,62,48,30.44,30.11,7,0,7,0.00
2013-12-10,22.8,9.7,-2.5,8.4,-0.7,-9.9,74,63,48,30.46,30.35,6,0,6,0.00
2013-12-11,34.7,19.7,6.9,17.6,8.7,-0.3,77,63,46,30.56,30.37,4,0,4,0.04
2013-12-12,44.4,27.0,14.7,22.2,12.4,7.3,74,56,26,30.57,30.28,6,0,6,0.04
2013-12-13,34.3,24.9,16.3,21.1,14.5,8.0,74,64,56,30.28,30.17,6,0,6,0.00
2013-12-14,34.8,23.2,13.2,20.3,13.6,7.4,80,67,50,30.51,30.27,6,1,6,0.00
2013-12-15,38.4,24.1,13.2,23.5,15.2,7.9,81,69,54,30.53,30.45,4,0,4,0.00
2013-12-16,40.6,27.3,17.2,25.3,17.8,11.3,81,68,52,30.54,30.46,5,0,5,0.00
2013-12-17,46.7,31.0,19.7,26.9,19.3,13.0,77,63,41,30.59,30.47,4,0,4,0.00
2013-12-18,46.2,33.1,23.3,24.1,19.8,15.2,73,59,39,30.47,30.15,7,0,7,0.00
2013-12-19,41.5,34.1,28.4,25.6,22.2,19.0,74,62,47,30.15,30.00,5,0,5,0.00
2013-12-20,35.2,29.9,22.2,27.7,23.9,16.4,82,78,71,30.04,29.92,8,0,8,0.04
2013-12-21,28.4,23.0,18.3,19.7,16.0,12.2,78,74,69,31.43,29.92,0,0,0,0.00
2013-12-22,31.6,20.4,10.5,20.3,11.8,4.3,79,70,54,30.38,30.04,8,1,8,0.02
2013-12-23,33.6,21.3,10.7,19.4,11.7,4.2,81,67,53,30.53,30.37,5,1,5,0.00
2013-12-27,44.4,34.5,19.7,22.5,18.4,11.9,74,53,39,30.53,30.38,6,1,6,0.00
2013-12-28,39.5,29.5,19.9,22.6,17.7,12.2,75,62,47,30.38,30.15,5,0,5,0.00
2013-12-29,38.8,28.4,20.4,23.7,17.7,12.2,78,65,49,30.33,30.16,7,1,7,0.00
2013-12-30,36.8,24.8,15.2,22.4,15.2,8.7,80,67,54,30.46,30.32,5,0,5,0.00
2013-12-31,40.2,27.4,16.1,21.9,16.2,10.0,80,64,46,30.45,30.30,5,0,5,0.00
2014-1-1,48.0,30.0,19.0,23.6,16.0,8.6,78,58,24,30.38,30.24,9,0,9,0.00
2014-1-2,43.1,28.2,17.2,16.8,11.2,5.7,64,50,32,30.45,30.30,5,0,5,0.00